createdAt,value
2019-03-18T00:00:11.949Z,99.90
2019-03-18T00:02:40.411Z,99.90
2019-03-18T00:05:09.005Z,99.90
2019-03-18T00:07:37.441Z,99.90
2019-03-18T00:10:07.712Z,99.90
2019-03-18T00:12:36.144Z,99.90
2019-03-18T00:15:06.814Z,99.90
2019-03-18T00:17:35.256Z,99.90
2019-03-18T00:20:04.817Z,99.90
2019-03-18T00:22:33.459Z,99.90
2019-03-18T00:25:01.879Z,99.90
2019-03-18T00:27:30.323Z,99.90
2019-03-18T00:29:58.761Z,99.90
2019-03-18T00:32:27.202Z,99.90
2019-03-18T00:34:55.620Z,99.90
2019-03-18T00:37:24.052Z,99.90
2019-03-18T00:39:52.477Z,99.90
2019-03-18T00:42:20.917Z,99.90
2019-03-18T00:44:49.337Z,99.90
2019-03-18T00:47:17.773Z,99.90
2019-03-18T00:49:46.215Z,99.90
2019-03-18T00:52:14.650Z,99.90
2019-03-18T00:55:02.420Z,99.90
2019-03-18T00:57:30.856Z,99.90
2019-03-18T00:59:59.281Z,99.90
2019-03-18T01:02:27.728Z,99.90
2019-03-18T01:04:56.164Z,99.90
2019-03-18T01:07:24.605Z,99.90
2019-03-18T01:09:53.041Z,99.90
2019-03-18T01:12:21.468Z,99.90
2019-03-18T01:14:49.904Z,99.90
2019-03-18T01:17:18.332Z,99.90
2019-03-18T01:19:46.771Z,99.90
2019-03-18T01:22:15.192Z,99.90
2019-03-18T01:24:43.628Z,99.90
2019-03-18T01:27:12.072Z,99.90
2019-03-18T01:29:40.523Z,99.90
2019-03-18T01:32:08.940Z,99.90
2019-03-18T01:34:37.379Z,99.90
2019-03-18T01:37:05.822Z,99.90
2019-03-18T01:39:34.261Z,99.90
2019-03-18T01:42:03.599Z,99.90
2019-03-18T01:44:32.036Z,99.90
2019-03-18T01:47:00.488Z,99.90
2019-03-18T01:49:28.918Z,99.90
2019-03-18T01:51:57.349Z,99.90
2019-03-18T01:54:25.785Z,99.90
2019-03-18T01:56:54.220Z,99.90
2019-03-18T01:59:22.675Z,99.90
2019-03-18T02:01:51.105Z,99.90
2019-03-18T02:04:19.537Z,99.90
2019-03-18T02:06:47.968Z,99.90
2019-03-18T02:09:16.401Z,99.90
2019-03-18T02:11:44.826Z,99.90
2019-03-18T02:14:13.334Z,99.90
2019-03-18T02:16:41.771Z,99.90
2019-03-18T02:19:10.228Z,99.90
2019-03-18T02:21:38.715Z,99.90
2019-03-18T02:24:07.165Z,99.90
2019-03-18T02:26:35.584Z,99.90
2019-03-18T02:29:04.039Z,99.90
2019-03-18T02:31:32.460Z,99.90
2019-03-18T02:34:00.899Z,99.90
2019-03-18T02:36:29.318Z,99.90
2019-03-18T02:38:57.757Z,99.90
2019-03-18T02:41:26.195Z,99.90
2019-03-18T02:43:54.627Z,99.90
2019-03-18T02:46:23.127Z,99.90
2019-03-18T02:48:51.573Z,99.90
2019-03-18T02:51:20.006Z,99.90
2019-03-18T02:53:48.463Z,99.90
2019-03-18T02:56:16.966Z,99.90
2019-03-18T02:58:45.404Z,99.90
2019-03-18T03:01:13.863Z,99.90
2019-03-18T03:03:42.371Z,99.90
2019-03-18T03:06:10.890Z,99.90
2019-03-18T03:08:39.307Z,99.90
2019-03-18T03:11:07.749Z,99.90
2019-03-18T03:13:36.178Z,99.90
2019-03-18T03:16:04.617Z,99.90
2019-03-18T03:18:33.825Z,99.90
2019-03-18T03:21:02.265Z,99.90
2019-03-18T03:23:30.797Z,99.90
2019-03-18T03:25:59.301Z,99.90
2019-03-18T03:28:27.725Z,99.90
2019-03-18T03:30:56.168Z,99.90
2019-03-18T03:33:24.635Z,99.90
2019-03-18T03:35:53.220Z,99.90
2019-03-18T03:38:21.670Z,99.90
2019-03-18T03:40:50.160Z,99.90
2019-03-18T03:43:18.590Z,99.90
2019-03-18T03:45:47.034Z,99.90
2019-03-18T03:48:34.799Z,99.90
2019-03-18T03:51:03.933Z,99.90
2019-03-18T03:53:32.381Z,99.90
2019-03-18T03:56:00.818Z,99.90
2019-03-18T03:58:29.237Z,99.90
2019-03-18T04:00:57.673Z,99.90
2019-03-18T04:03:37.646Z,99.90
2019-03-18T04:05:56.274Z,99.90
2019-03-18T04:08:24.697Z,99.90
2019-03-18T04:10:53.215Z,99.90
2019-03-18T04:13:21.634Z,99.90
2019-03-18T04:15:50.091Z,99.90
2019-03-18T04:18:18.513Z,99.90
2019-03-18T04:20:46.947Z,99.90
2019-03-18T04:23:15.466Z,99.90
2019-03-18T04:25:43.917Z,99.90
2019-03-18T04:28:12.354Z,99.90
2019-03-18T04:30:40.876Z,99.90
2019-03-18T04:33:09.296Z,99.90
2019-03-18T04:35:37.751Z,99.90
2019-03-18T04:38:06.177Z,99.90
2019-03-18T04:40:34.612Z,99.90
2019-03-18T04:43:03.967Z,99.90
2019-03-18T04:45:32.402Z,99.90
2019-03-18T04:48:00.844Z,99.90
2019-03-18T04:50:29.268Z,99.90
2019-03-18T04:52:57.685Z,99.90
2019-03-18T04:55:26.139Z,99.90
2019-03-18T04:57:54.568Z,99.90
2019-03-18T05:00:23.017Z,99.90
2019-03-18T05:02:51.428Z,99.90
2019-03-18T05:05:19.897Z,99.90
2019-03-18T05:07:48.321Z,99.90
2019-03-18T05:10:16.767Z,99.90
2019-03-18T05:12:45.192Z,99.90
2019-03-18T05:15:13.681Z,99.90
2019-03-18T05:17:42.115Z,99.90
2019-03-18T05:20:11.386Z,99.90
2019-03-18T05:22:39.822Z,99.90
2019-03-18T05:25:09.372Z,99.90
2019-03-18T05:27:37.800Z,99.90
2019-03-18T05:30:11.630Z,99.90
2019-03-18T05:32:40.059Z,99.90
2019-03-18T05:35:08.549Z,99.90
2019-03-18T05:37:36.984Z,99.90
2019-03-18T05:40:07.265Z,99.90
2019-03-18T05:42:35.697Z,99.90
2019-03-18T05:45:06.356Z,99.90
2019-03-18T05:47:39.629Z,99.90
2019-03-18T05:50:06.829Z,99.90
2019-03-18T05:52:35.271Z,99.90
2019-03-18T05:55:04.869Z,99.90
2019-03-18T05:57:37.243Z,99.90
2019-03-18T06:00:13.781Z,99.90
2019-03-18T06:02:42.468Z,99.90
2019-03-18T06:05:10.897Z,99.90
2019-03-18T06:07:39.399Z,99.90
2019-03-18T06:10:10.620Z,99.90
2019-03-18T06:12:39.056Z,99.90
2019-03-18T06:15:09.625Z,99.90
2019-03-18T06:17:38.144Z,99.90
2019-03-18T06:20:09.265Z,99.90
2019-03-18T06:22:37.697Z,99.90
2019-03-18T06:25:08.145Z,99.90
2019-03-18T06:27:36.612Z,99.90
2019-03-18T06:30:18.072Z,99.90
2019-03-18T06:32:46.501Z,99.90
2019-03-18T06:35:14.981Z,99.90
2019-03-18T06:37:43.448Z,99.90
2019-03-18T06:40:15.249Z,99.90
2019-03-18T06:42:43.684Z,99.90
2019-03-18T06:45:12.460Z,99.90
2019-03-18T06:47:40.891Z,99.90
2019-03-18T06:50:12.997Z,99.90
2019-03-18T06:52:41.450Z,99.90
2019-03-18T06:55:10.038Z,99.90
2019-03-18T06:57:38.557Z,99.90
2019-03-18T07:00:14.349Z,99.90
2019-03-18T07:02:42.780Z,99.90
2019-03-18T07:05:11.372Z,99.90
2019-03-18T07:07:39.823Z,99.90
2019-03-18T07:10:10.508Z,99.90
2019-03-18T07:12:38.964Z,99.90
2019-03-18T07:15:07.920Z,99.90
2019-03-18T07:17:36.352Z,99.90
2019-03-18T07:20:10.109Z,99.90
2019-03-18T07:22:38.536Z,99.90
2019-03-18T07:25:07.519Z,99.90
2019-03-18T07:27:35.971Z,99.90
2019-03-18T07:30:13.163Z,99.90
2019-03-18T07:32:41.599Z,99.90
2019-03-18T07:35:10.103Z,99.90
2019-03-18T07:37:38.559Z,99.90
2019-03-18T07:40:14.594Z,99.90
2019-03-18T07:42:43.031Z,99.90
2019-03-18T07:45:15.436Z,99.90
2019-03-18T07:47:42.463Z,99.90
2019-03-18T07:50:12.413Z,99.90
2019-03-18T07:52:40.844Z,99.90
2019-03-18T07:55:09.521Z,99.90
2019-03-18T07:57:37.975Z,99.90
2019-03-18T08:00:15.848Z,99.90
2019-03-18T08:02:44.284Z,99.90
2019-03-18T08:05:12.704Z,99.90
2019-03-18T08:07:41.143Z,99.90
2019-03-18T08:10:11.706Z,99.90
2019-03-18T08:12:40.140Z,99.90
2019-03-18T08:15:10.003Z,99.90
2019-03-18T08:17:38.437Z,99.90
2019-03-18T08:20:09.311Z,99.90
2019-03-18T08:22:37.762Z,99.90
2019-03-18T08:25:07.539Z,99.90
2019-03-18T08:27:36.032Z,99.90
2019-03-18T08:30:07.556Z,99.90
2019-03-18T08:32:35.994Z,99.90
2019-03-18T08:35:05.748Z,99.90
2019-03-18T08:37:37.205Z,99.90
2019-03-18T08:40:10.534Z,99.90
2019-03-18T08:42:38.971Z,99.90
2019-03-18T08:45:10.484Z,99.90
2019-03-18T08:47:38.911Z,99.90
2019-03-18T08:50:12.472Z,99.90
2019-03-18T08:52:41.287Z,99.90
2019-03-18T08:55:10.681Z,99.90
2019-03-18T08:57:39.149Z,99.90
2019-03-18T09:00:13.256Z,99.90
2019-03-18T09:02:41.764Z,99.90
2019-03-18T09:05:10.356Z,99.90
2019-03-18T09:07:38.798Z,99.90
2019-03-18T09:10:13.692Z,99.90
2019-03-18T09:12:42.128Z,99.90
2019-03-18T09:15:11.450Z,99.90
2019-03-18T09:17:39.949Z,99.90
2019-03-18T09:20:10.870Z,99.90
2019-03-18T09:22:39.318Z,99.90
2019-03-18T09:25:09.694Z,99.90
2019-03-18T09:27:38.243Z,99.90
2019-03-18T09:30:12.414Z,99.90
2019-03-18T09:32:40.832Z,99.90
2019-03-18T09:35:09.333Z,99.90
2019-03-18T09:37:37.821Z,99.90
2019-03-18T09:40:09.261Z,99.90
2019-03-18T09:42:37.703Z,99.90
2019-03-18T09:45:19.653Z,99.90
2019-03-18T09:47:48.082Z,99.90
2019-03-18T09:50:16.777Z,99.90
2019-03-18T09:52:45.280Z,99.90
2019-03-18T09:55:13.858Z,99.90
2019-03-18T09:57:42.278Z,99.90
2019-03-18T10:00:15.593Z,99.90
2019-03-18T10:02:44.010Z,99.90
2019-03-18T10:05:12.447Z,99.90
2019-03-18T10:07:40.884Z,99.90
2019-03-18T10:10:10.960Z,99.90
2019-03-18T10:12:39.398Z,99.90
2019-03-18T10:15:10.962Z,99.90
2019-03-18T10:17:39.376Z,99.90
2019-03-18T10:20:08.977Z,99.90
2019-03-18T10:22:37.461Z,99.90
2019-03-18T10:25:07.467Z,99.90
2019-03-18T10:27:37.684Z,99.90
2019-03-18T10:30:11.870Z,99.90
2019-03-18T10:32:40.296Z,99.90
2019-03-18T10:35:09.279Z,99.90
2019-03-18T10:37:37.764Z,99.90
2019-03-18T10:40:09.059Z,99.90
2019-03-18T10:42:37.537Z,99.90
2019-03-18T10:45:10.408Z,99.90
2019-03-18T10:47:38.834Z,99.90
2019-03-18T10:50:16.921Z,99.90
2019-03-18T10:52:45.468Z,99.90
2019-03-18T10:55:13.883Z,99.90
2019-03-18T10:57:42.334Z,99.90
2019-03-18T11:00:15.494Z,99.90
2019-03-18T11:02:45.194Z,99.90
2019-03-18T11:05:14.673Z,99.90
2019-03-18T11:07:43.158Z,99.90
2019-03-18T11:10:13.027Z,99.90
2019-03-18T11:12:41.471Z,99.90
2019-03-18T11:15:15.073Z,99.90
2019-03-18T11:17:44.344Z,99.90
2019-03-18T11:20:16.466Z,99.90
2019-03-18T11:22:44.924Z,99.90
2019-03-18T11:25:14.796Z,99.90
2019-03-18T11:27:43.303Z,99.90
2019-03-18T11:30:16.328Z,99.90
2019-03-18T11:32:44.762Z,99.90
2019-03-18T11:35:13.202Z,99.90
2019-03-18T11:37:41.728Z,99.90
2019-03-18T11:40:12.986Z,99.90
2019-03-18T11:42:41.455Z,99.90
2019-03-18T11:45:14.404Z,99.90
2019-03-18T11:47:42.836Z,99.90
2019-03-18T11:50:16.257Z,99.90
2019-03-18T11:52:44.776Z,99.90
2019-03-18T11:55:24.246Z,99.90
2019-03-18T11:57:52.679Z,99.90
2019-03-18T12:00:25.176Z,99.90
2019-03-18T12:02:53.695Z,99.90
2019-03-18T12:05:22.973Z,99.90
2019-03-18T12:07:51.485Z,99.90
2019-03-18T12:10:20.922Z,99.90
2019-03-18T12:12:49.377Z,99.90
2019-03-18T12:15:21.412Z,99.90
2019-03-18T12:17:49.173Z,99.90
2019-03-18T12:20:24.094Z,99.50
2019-03-18T12:22:47.809Z,99.90
2019-03-18T12:25:16.302Z,99.90
2019-03-18T12:27:44.746Z,99.90
2019-03-18T12:30:16.072Z,99.90
2019-03-18T12:32:44.577Z,99.90
2019-03-18T12:35:13.177Z,99.90
2019-03-18T12:37:41.620Z,99.90
2019-03-18T12:40:15.166Z,99.90
2019-03-18T12:42:43.668Z,99.90
2019-03-18T12:45:17.432Z,99.90
2019-03-18T12:47:45.889Z,99.90
2019-03-18T12:50:18.359Z,99.90
2019-03-18T12:52:46.803Z,99.90
2019-03-18T12:55:15.356Z,99.90
2019-03-18T12:57:43.792Z,99.90
2019-03-18T13:00:32.207Z,99.90
2019-03-18T13:03:00.717Z,99.90
2019-03-18T13:05:29.229Z,99.60
2019-03-18T13:07:57.654Z,99.10
2019-03-18T13:10:26.164Z,97.90
2019-03-18T13:12:54.669Z,96.00
2019-03-18T13:15:23.172Z,95.10
2019-03-18T13:17:51.608Z,96.60
2019-03-18T13:20:21.172Z,97.40
2019-03-18T13:22:49.620Z,98.30
2019-03-18T13:25:18.070Z,98.80
2019-03-18T13:27:46.569Z,99.50
2019-03-18T13:30:19.021Z,99.80
2019-03-18T13:32:47.483Z,98.60
2019-03-18T13:35:15.973Z,96.70
2019-03-18T13:37:44.409Z,94.10
2019-03-18T13:40:14.272Z,96.30
2019-03-18T13:42:42.787Z,97.10
2019-03-18T13:45:16.858Z,98.80
2019-03-18T13:47:45.301Z,99.40
2019-03-18T13:50:19.119Z,99.90
2019-03-18T13:52:47.599Z,99.90
2019-03-18T13:55:16.164Z,99.90
2019-03-18T13:57:44.604Z,99.90
2019-03-18T14:00:17.868Z,99.90
2019-03-18T14:02:46.431Z,99.90
2019-03-18T14:05:14.985Z,99.90
2019-03-18T14:07:43.442Z,99.90
2019-03-18T14:10:16.976Z,99.90
2019-03-18T14:12:45.427Z,99.90
2019-03-18T14:15:18.495Z,99.90
2019-03-18T14:17:47.000Z,99.90
2019-03-18T14:20:17.926Z,99.90
2019-03-18T14:22:46.357Z,99.90
2019-03-18T14:25:14.846Z,99.90
2019-03-18T14:27:43.316Z,99.90
2019-03-18T14:30:16.133Z,99.90
2019-03-18T14:32:44.656Z,99.90
2019-03-18T14:35:13.520Z,99.90
2019-03-18T14:37:41.958Z,99.90
2019-03-18T14:40:18.537Z,99.90
2019-03-18T14:42:46.964Z,99.90
2019-03-18T14:45:19.983Z,99.90
2019-03-18T14:47:48.403Z,99.90
2019-03-18T14:50:18.096Z,99.90
2019-03-18T14:52:46.591Z,99.90
2019-03-18T14:55:15.960Z,99.90
2019-03-18T14:57:44.377Z,99.90
2019-03-18T15:00:15.640Z,99.90
2019-03-18T15:02:44.072Z,99.90
2019-03-18T15:05:14.245Z,99.90
2019-03-18T15:07:42.668Z,99.90
2019-03-18T15:10:13.742Z,99.90
2019-03-18T15:12:42.259Z,99.90
2019-03-18T15:15:13.584Z,99.90
2019-03-18T15:17:42.037Z,99.90
2019-03-18T15:20:12.451Z,99.90
2019-03-18T15:22:41.016Z,99.90
2019-03-18T15:25:15.256Z,99.90
2019-03-18T15:27:43.699Z,99.90
2019-03-18T15:30:15.237Z,99.90
2019-03-18T15:32:43.661Z,99.90
2019-03-18T15:35:12.768Z,99.90
2019-03-18T15:37:41.191Z,99.90
2019-03-18T15:40:18.781Z,99.90
2019-03-18T15:42:47.205Z,99.90
2019-03-18T15:45:17.184Z,99.90
2019-03-18T15:47:45.627Z,99.90
2019-03-18T15:50:21.975Z,99.90
2019-03-18T15:52:50.398Z,99.90
2019-03-18T15:55:18.846Z,99.90
2019-03-18T15:57:47.359Z,99.90
2019-03-18T16:00:20.238Z,99.90
2019-03-18T16:02:48.666Z,99.90
2019-03-18T16:05:17.093Z,99.90
2019-03-18T16:07:45.520Z,99.90
2019-03-18T16:10:17.443Z,99.90
2019-03-18T16:12:45.928Z,99.90
2019-03-18T16:15:17.833Z,99.90
2019-03-18T16:17:46.264Z,99.90
2019-03-18T16:20:25.553Z,99.90
2019-03-18T16:22:54.022Z,99.90
2019-03-18T16:25:22.515Z,99.90
2019-03-18T16:27:50.954Z,99.90
2019-03-18T16:30:20.508Z,99.90
2019-03-18T16:32:48.948Z,99.90
2019-03-18T16:35:17.637Z,99.90
2019-03-18T16:37:46.104Z,99.90
2019-03-18T16:40:18.529Z,99.90
2019-03-18T16:42:46.974Z,99.90
2019-03-18T16:45:17.382Z,99.90
2019-03-18T16:47:45.807Z,99.90
2019-03-18T16:50:22.458Z,99.90
2019-03-18T16:52:50.947Z,99.90
2019-03-18T16:55:19.380Z,99.90
2019-03-18T16:57:47.832Z,99.90
2019-03-18T17:00:24.513Z,99.90
2019-03-18T17:02:52.932Z,99.90
2019-03-18T17:05:21.368Z,99.90
2019-03-18T17:07:49.798Z,99.90
2019-03-18T17:10:18.293Z,99.90
2019-03-18T17:12:46.741Z,99.90
2019-03-18T17:15:19.830Z,99.90
2019-03-18T17:17:48.248Z,99.90
2019-03-18T17:20:17.151Z,99.90
2019-03-18T17:22:49.380Z,99.90
2019-03-18T17:25:27.468Z,99.90
2019-03-18T17:27:55.888Z,99.90
2019-03-18T17:30:26.689Z,99.90
2019-03-18T17:32:54.469Z,99.90
2019-03-18T17:35:22.897Z,99.90
2019-03-18T17:37:51.337Z,99.90
2019-03-18T17:40:20.717Z,99.90
2019-03-18T17:42:49.150Z,99.90
2019-03-18T17:45:19.189Z,99.90
2019-03-18T17:47:47.709Z,99.90
2019-03-18T17:50:27.566Z,99.90
2019-03-18T17:53:03.173Z,99.90
2019-03-18T17:55:26.142Z,99.90
2019-03-18T17:57:54.701Z,99.90
2019-03-18T18:00:27.520Z,99.90
2019-03-18T18:02:55.949Z,99.90
2019-03-18T18:05:24.376Z,99.90
2019-03-18T18:07:52.809Z,99.90
2019-03-18T18:10:21.224Z,99.90
2019-03-18T18:12:49.661Z,99.90
2019-03-18T18:15:18.107Z,99.90
2019-03-18T18:17:46.546Z,99.90
2019-03-18T18:20:17.741Z,99.90
2019-03-18T18:22:46.273Z,99.90
2019-03-18T18:25:15.680Z,99.90
2019-03-18T18:27:44.128Z,99.90
2019-03-18T18:30:18.918Z,99.90
2019-03-18T18:32:47.485Z,99.90
2019-03-18T18:35:15.905Z,99.90
2019-03-18T18:37:44.385Z,99.90
2019-03-18T18:40:17.885Z,99.90
2019-03-18T18:42:46.317Z,99.90
2019-03-18T18:45:14.763Z,99.90
2019-03-18T18:47:43.218Z,99.90
2019-03-18T18:50:12.387Z,99.90
2019-03-18T18:52:40.839Z,99.90
2019-03-18T18:55:10.572Z,99.90
2019-03-18T18:57:39.091Z,99.90
2019-03-18T19:00:18.329Z,99.90
2019-03-18T19:02:46.765Z,99.90
2019-03-18T19:05:18.723Z,99.90
2019-03-18T19:07:47.174Z,99.90
2019-03-18T19:10:20.128Z,99.90
2019-03-18T19:12:48.647Z,99.90
2019-03-18T19:15:22.069Z,99.90
2019-03-18T19:17:50.558Z,99.90
2019-03-18T19:20:18.985Z,99.90
2019-03-18T19:22:47.420Z,99.90
2019-03-18T19:25:16.586Z,99.90
2019-03-18T19:27:45.022Z,99.90
2019-03-18T19:30:23.109Z,99.90
2019-03-18T19:32:51.613Z,99.90
2019-03-18T19:35:20.101Z,99.90
2019-03-18T19:37:48.535Z,99.90
2019-03-18T19:40:20.776Z,99.90
2019-03-18T19:42:49.287Z,99.90
2019-03-18T19:45:17.712Z,99.90
2019-03-18T19:47:46.180Z,99.90
2019-03-18T19:50:23.399Z,99.90
2019-03-18T19:52:51.844Z,99.90
2019-03-18T19:55:20.285Z,99.90
2019-03-18T19:57:48.721Z,99.90
2019-03-18T20:00:24.256Z,99.90
2019-03-18T20:02:52.711Z,99.90
2019-03-18T20:05:21.206Z,99.90
2019-03-18T20:07:49.637Z,99.90
2019-03-18T20:10:19.005Z,99.90
2019-03-18T20:12:47.460Z,99.90
2019-03-18T20:15:16.939Z,99.90
2019-03-18T20:17:45.442Z,99.90
2019-03-18T20:20:19.028Z,99.90
2019-03-18T20:22:47.478Z,99.90
2019-03-18T20:25:15.940Z,99.90
2019-03-18T20:27:44.385Z,99.90
2019-03-18T20:30:27.821Z,99.90
2019-03-18T20:33:05.948Z,99.90
2019-03-18T20:35:34.636Z,99.90
2019-03-18T20:38:03.147Z,99.90
2019-03-18T20:40:31.593Z,99.90
2019-03-18T20:43:00.093Z,99.90
2019-03-18T20:45:28.536Z,99.90
2019-03-18T20:47:56.956Z,99.90
2019-03-18T20:50:25.610Z,99.90
2019-03-18T20:52:54.056Z,99.90
2019-03-18T20:55:22.557Z,99.90
2019-03-18T20:57:51.000Z,99.90
2019-03-18T21:00:24.158Z,99.90
2019-03-18T21:02:52.591Z,99.90
2019-03-18T21:05:21.035Z,99.90
2019-03-18T21:07:49.530Z,99.90
2019-03-18T21:10:18.903Z,99.90
2019-03-18T21:12:47.329Z,99.90
2019-03-18T21:15:16.599Z,99.90
2019-03-18T21:17:45.024Z,99.90
2019-03-18T21:20:29.177Z,99.90
2019-03-18T21:22:57.681Z,99.90
2019-03-18T21:25:26.132Z,99.90
2019-03-18T21:27:54.556Z,99.90
2019-03-18T21:30:23.545Z,99.90
2019-03-18T21:32:52.019Z,99.90
2019-03-18T21:35:20.518Z,99.90
2019-03-18T21:37:48.997Z,99.90
2019-03-18T21:40:18.507Z,99.90
2019-03-18T21:42:46.932Z,99.90
2019-03-18T21:45:23.882Z,99.90
2019-03-18T21:47:52.758Z,99.90
2019-03-18T21:50:21.270Z,99.90
2019-03-18T21:52:49.685Z,99.90
2019-03-18T21:55:18.212Z,99.90
2019-03-18T21:57:46.816Z,99.90
2019-03-18T22:00:20.429Z,99.90
2019-03-18T22:02:48.917Z,99.90
2019-03-18T22:05:17.349Z,99.90
2019-03-18T22:07:45.821Z,99.90
2019-03-18T22:10:16.453Z,99.90
2019-03-18T22:12:44.948Z,99.90
2019-03-18T22:15:14.332Z,99.90
2019-03-18T22:17:42.760Z,99.90
2019-03-18T22:20:13.436Z,99.90
2019-03-18T22:22:41.868Z,99.90
2019-03-18T22:25:11.933Z,99.90
2019-03-18T22:27:40.371Z,99.90
2019-03-18T22:30:14.654Z,99.90
2019-03-18T22:32:43.075Z,99.90
2019-03-18T22:35:11.928Z,99.90
2019-03-18T22:37:40.427Z,99.90
2019-03-18T22:40:11.301Z,99.90
2019-03-18T22:42:39.719Z,99.90
2019-03-18T22:45:10.589Z,99.90
2019-03-18T22:47:39.371Z,99.90
2019-03-18T22:50:09.544Z,99.90
2019-03-18T22:52:37.965Z,99.90
2019-03-18T22:55:11.044Z,99.90
2019-03-18T22:57:39.737Z,99.90
2019-03-18T23:00:20.580Z,99.90
2019-03-18T23:02:49.358Z,99.90
2019-03-18T23:05:17.932Z,99.90
2019-03-18T23:07:46.382Z,99.90
2019-03-18T23:10:14.889Z,99.90
2019-03-18T23:12:43.348Z,99.90
2019-03-18T23:15:11.822Z,99.90
2019-03-18T23:17:40.277Z,99.90
2019-03-18T23:20:09.143Z,99.90
2019-03-18T23:22:37.576Z,99.90
2019-03-18T23:25:08.201Z,99.90
2019-03-18T23:27:36.946Z,99.90
2019-03-18T23:30:09.400Z,99.90
2019-03-18T23:32:37.851Z,99.90
2019-03-18T23:35:06.894Z,99.90
2019-03-18T23:37:35.324Z,99.90
2019-03-18T23:40:06.032Z,99.90
2019-03-18T23:42:34.488Z,99.90
2019-03-18T23:45:02.910Z,99.90
2019-03-18T23:47:31.373Z,99.90
2019-03-18T23:49:59.832Z,99.90
2019-03-18T23:52:28.327Z,99.90
2019-03-18T23:54:56.774Z,99.90
2019-03-18T23:57:25.214Z,99.90
2019-03-18T23:59:53.647Z,99.90
